Bethel, VT (05032)

3:11 PM EDT on August 03, 2015 (GMT -0400)
Suicide Six Ski Area | | Change Station
CLOSE
Current Station
Personal Weather Station
Location: South Pomfret, VT
Elevation: 850 ft
Nearby Weather Stations
Active Advisory: Severe Thunderstorm Watch

Elev 850 ft 43.68 °N, 72.56 °W | Updated 21 seconds ago

Clear
Clear
86.2 °F
Feels Like 90 °F
N
0.0
Wind Variable Wind from West
Gusts 0.0 mph

Today
High -- | Low -- °F
--% Chance of Precip.
Yesterday
High -- | Low -- °F
Precip. -- in
5:41 AM 8:11 PM
Waning Gibbous, 85% visible
Pressure 29.67 in
Visibility 10.0 miles
Clouds Few 5500 ft
Few 7500 ft
Heat Index 90 °F
Dew Point 69 °F
Humidity 57%
Rainfall 0.00 in
Snow Depth Not available.
UV 8 out of 12
Pollen 5.60 out of 12
Air Quality Not available.
Flu Activity Not available.
METAR KLEB 031853Z 19009KT 10SM FEW055 FEW075 32/18 A2970 RMK AO2 SLP046 T03170178

More Conditions Fewer Conditions

Pressure 29.67 in
Visibility 10.0 miles
Clouds Few 5500 ft
Few 7500 ft
Heat Index 90 °F
Dew Point 69 °F
Humidity 57%
Rainfall 0.00 in
Snow Depth Not available.
UV 8 out of 12
Pollen 5.60 out of 12
Air Quality Not available.
Flu Activity Not available.
METAR KLEB 031853Z 19009KT 10SM FEW055 FEW075 32/18 A2970 RMK AO2 SLP046 T03170178

More Conditions Fewer Conditions

10-Day Weather Forecast

×

Almanac

Astronomy

Aug. 03, 2015 Rise Set
Actual Time
Civil Twilight
Nautical Twilight
Astronomical Twilight
Moon
Length of Visible Light
Length of Day
Tomorrow will be .
, % of the Moon is Illuminated

Today's Extremes

State Highs State Lows

Community

WunderPhotos

Upload Photos

1,843,707 photos uploaded!

WunderBlogs® & News

Nearby

Air Quality

  Air Quality AQ Index Pollutant
Not available.

Snow Depth

Station Depth Elevation

Earthquake Activity

City Distance Mag. Time & Date
Minimum magnitude displayed is 2.5.

Coastal Water Temperatures

Place Temperature

Stations

Nearby Weather Stations

Station Location Temp. Windchill Dew Point Humidity Wind Precip. Elev Updated Type
                   
Severe Thunderstorm Watch
Statement as of 3:03 PM EDT on August 03, 2015

Severe Thunderstorm Watch 466 remains in effect until 900 PM EDT

VT
. Vermont counties included are

Addison Caledonia Chittenden
Essex Franklin Grand Isle
LaMoille Orange Orleans
Rutland Washington Windsor